sensor_id;sensor_type;location;lat;lon;timestamp;pressure;altitude;pressure_sealevel;temperature;humidity
46534;BME280;32260;52.008;4.752;2023-02-28T00:01:21;103281.84;;;2.96;65.92
46534;BME280;32260;52.008;4.752;2023-02-28T00:03:48;103284.53;;;2.98;65.55
46534;BME280;32260;52.008;4.752;2023-02-28T00:06:14;103289.78;;;2.98;65.34
46534;BME280;32260;52.008;4.752;2023-02-28T00:08:40;103289.03;;;3.00;66.07
46534;BME280;32260;52.008;4.752;2023-02-28T00:11:09;103291.84;;;3.03;65.17
46534;BME280;32260;52.008;4.752;2023-02-28T00:13:37;103296.38;;;3.07;65.71
46534;BME280;32260;52.008;4.752;2023-02-28T00:16:07;103296.78;;;3.15;65.07
46534;BME280;32260;52.008;4.752;2023-02-28T00:18:35;103303.16;;;3.20;65.34
46534;BME280;32260;52.008;4.752;2023-02-28T00:21:01;103298.25;;;3.27;65.06
46534;BME280;32260;52.008;4.752;2023-02-28T00:23:27;103298.53;;;3.33;65.39
46534;BME280;32260;52.008;4.752;2023-02-28T00:25:54;103291.06;;;3.40;65.49
46534;BME280;32260;52.008;4.752;2023-02-28T00:28:20;103294.84;;;3.47;65.00
46534;BME280;32260;52.008;4.752;2023-02-28T00:30:47;103299.59;;;3.54;65.25
46534;BME280;32260;52.008;4.752;2023-02-28T00:33:13;103295.53;;;3.61;65.04
46534;BME280;32260;52.008;4.752;2023-02-28T00:35:39;103305.41;;;3.67;65.01
46534;BME280;32260;52.008;4.752;2023-02-28T00:38:05;103295.22;;;3.73;64.78
46534;BME280;32260;52.008;4.752;2023-02-28T00:40:31;103297.31;;;3.80;64.56
46534;BME280;32260;52.008;4.752;2023-02-28T00:42:57;103299.25;;;3.84;64.77
46534;BME280;32260;52.008;4.752;2023-02-28T00:45:23;103298.66;;;3.90;64.90
46534;BME280;32260;52.008;4.752;2023-02-28T00:47:49;103293.59;;;3.95;64.74
46534;BME280;32260;52.008;4.752;2023-02-28T00:50:18;103287.78;;;4.00;64.85
46534;BME280;32260;52.008;4.752;2023-02-28T00:52:44;103284.38;;;4.03;64.47
46534;BME280;32260;52.008;4.752;2023-02-28T00:55:11;103280.25;;;4.08;64.19
46534;BME280;32260;52.008;4.752;2023-02-28T00:57:37;103285.66;;;4.11;64.19
46534;BME280;32260;52.008;4.752;2023-02-28T01:00:04;103278.03;;;4.17;64.33
46534;BME280;32260;52.008;4.752;2023-02-28T01:02:31;103290.53;;;4.23;64.84
46534;BME280;32260;52.008;4.752;2023-02-28T01:04:57;103286.34;;;4.27;64.92
46534;BME280;32260;52.008;4.752;2023-02-28T01:07:23;103291.81;;;4.31;64.57
46534;BME280;32260;52.008;4.752;2023-02-28T01:09:49;103299.88;;;4.36;64.54
46534;BME280;32260;52.008;4.752;2023-02-28T01:12:18;103304.50;;;4.42;64.45
46534;BME280;32260;52.008;4.752;2023-02-28T01:14:47;103295.94;;;4.46;64.27
46534;BME280;32260;52.008;4.752;2023-02-28T01:17:14;103296.00;;;4.47;64.13
46534;BME280;32260;52.008;4.752;2023-02-28T01:19:42;103294.41;;;4.51;64.48
46534;BME280;32260;52.008;4.752;2023-02-28T01:22:09;103297.19;;;4.54;64.17
46534;BME280;32260;52.008;4.752;2023-02-28T01:24:35;103290.34;;;4.58;64.47
46534;BME280;32260;52.008;4.752;2023-02-28T01:27:01;103283.41;;;4.60;64.31
46534;BME280;32260;52.008;4.752;2023-02-28T01:29:27;103281.75;;;4.62;63.91
46534;BME280;32260;52.008;4.752;2023-02-28T01:31:53;103281.91;;;4.65;64.29
46534;BME280;32260;52.008;4.752;2023-02-28T01:34:19;103289.03;;;4.67;64.28
46534;BME280;32260;52.008;4.752;2023-02-28T01:36:46;103283.84;;;4.69;64.22
46534;BME280;32260;52.008;4.752;2023-02-28T01:39:12;103283.94;;;4.72;64.34
46534;BME280;32260;52.008;4.752;2023-02-28T01:41:39;103280.50;;;4.73;64.25
46534;BME280;32260;52.008;4.752;2023-02-28T01:45:23;103285.06;;;4.77;64.56
46534;BME280;32260;52.008;4.752;2023-02-28T01:46:53;103278.09;;;4.78;64.13
46534;BME280;32260;52.008;4.752;2023-02-28T01:49:20;103273.72;;;4.78;64.65
46534;BME280;32260;52.008;4.752;2023-02-28T01:51:49;103273.09;;;4.84;64.48
46534;BME280;32260;52.008;4.752;2023-02-28T01:54:22;103272.31;;;4.86;64.31
46534;BME280;32260;52.008;4.752;2023-02-28T01:56:55;103269.91;;;4.91;64.48
46534;BME280;32260;52.008;4.752;2023-02-28T01:59:26;103263.72;;;4.91;64.18
46534;BME280;32260;52.008;4.752;2023-02-28T02:01:54;103276.03;;;4.92;63.73
46534;BME280;32260;52.008;4.752;2023-02-28T02:04:23;103274.38;;;4.94;64.28
46534;BME280;32260;52.008;4.752;2023-02-28T02:06:52;103266.56;;;4.95;64.43
46534;BME280;32260;52.008;4.752;2023-02-28T02:09:18;103265.69;;;4.95;64.16
46534;BME280;32260;52.008;4.752;2023-02-28T02:11:45;103264.06;;;4.98;64.21
46534;BME280;32260;52.008;4.752;2023-02-28T02:33:34;103247.97;;;5.12;64.21
46534;BME280;32260;52.008;4.752;2023-02-28T02:36:14;103241.88;;;5.13;64.25
46534;BME280;32260;52.008;4.752;2023-02-28T02:38:50;103244.56;;;5.14;64.18
46534;BME280;32260;52.008;4.752;2023-02-28T02:41:38;103241.13;;;5.15;64.26
46534;BME280;32260;52.008;4.752;2023-02-28T02:44:13;103242.09;;;5.17;64.27
46534;BME280;32260;52.008;4.752;2023-02-28T02:46:45;103240.34;;;5.18;64.53
46534;BME280;32260;52.008;4.752;2023-02-28T02:49:18;103240.41;;;5.19;64.14
46534;BME280;32260;52.008;4.752;2023-02-28T02:51:47;103246.56;;;5.20;64.29
46534;BME280;32260;52.008;4.752;2023-02-28T02:54:20;103240.59;;;5.24;64.34
46534;BME280;32260;52.008;4.752;2023-02-28T02:56:48;103245.78;;;5.23;64.20
46534;BME280;32260;52.008;4.752;2023-02-28T02:59:20;103244.97;;;5.24;64.30
46534;BME280;32260;52.008;4.752;2023-02-28T03:01:51;103251.16;;;5.26;64.34
46534;BME280;32260;52.008;4.752;2023-02-28T03:04:21;103245.84;;;5.24;64.07
46534;BME280;32260;52.008;4.752;2023-02-28T03:06:48;103253.72;;;5.24;64.16
46534;BME280;32260;52.008;4.752;2023-02-28T03:09:14;103259.00;;;5.24;64.45
46534;BME280;32260;52.008;4.752;2023-02-28T03:11:40;103252.84;;;5.24;64.52
46534;BME280;32260;52.008;4.752;2023-02-28T03:21:06;103260.28;;;5.34;64.53
46534;BME280;32260;52.008;4.752;2023-02-28T03:31:12;103262.06;;;5.35;64.34
46534;BME280;32260;52.008;4.752;2023-02-28T03:33:50;103257.78;;;5.37;64.10
46534;BME280;32260;52.008;4.752;2023-02-28T03:36:25;103260.47;;;5.39;64.51
46534;BME280;32260;52.008;4.752;2023-02-28T03:38:56;103257.38;;;5.49;64.30
46534;BME280;32260;52.008;4.752;2023-02-28T03:41:32;103245.63;;;5.41;64.50
46534;BME280;32260;52.008;4.752;2023-02-28T03:44:05;103254.44;;;5.41;64.72
46534;BME280;32260;52.008;4.752;2023-02-28T03:46:36;103258.72;;;5.39;64.73
46534;BME280;32260;52.008;4.752;2023-02-28T03:49:23;103248.41;;;5.44;64.48
46534;BME280;32260;52.008;4.752;2023-02-28T03:51:50;103249.03;;;5.38;64.60
46534;BME280;32260;52.008;4.752;2023-02-28T03:54:23;103249.94;;;5.39;64.75
46534;BME280;32260;52.008;4.752;2023-02-28T03:56:59;103249.13;;;5.40;64.68
46534;BME280;32260;52.008;4.752;2023-02-28T03:59:33;103252.63;;;5.40;64.86
46534;BME280;32260;52.008;4.752;2023-02-28T04:02:00;103249.03;;;5.38;65.08
46534;BME280;32260;52.008;4.752;2023-02-28T04:04:27;103248.16;;;5.38;64.89
46534;BME280;32260;52.008;4.752;2023-02-28T04:07:02;103250.88;;;5.41;64.95
46534;BME280;32260;52.008;4.752;2023-02-28T04:09:29;103248.19;;;5.39;64.87
46534;BME280;32260;52.008;4.752;2023-02-28T04:11:55;103246.41;;;5.38;64.98
46534;BME280;32260;52.008;4.752;2023-02-28T04:14:22;103251.66;;;5.38;65.05
46534;BME280;32260;52.008;4.752;2023-02-28T04:16:48;103252.53;;;5.37;65.36
46534;BME280;32260;52.008;4.752;2023-02-28T04:19:14;103252.44;;;5.35;65.12
46534;BME280;32260;52.008;4.752;2023-02-28T04:21:43;103256.81;;;5.35;64.92
46534;BME280;32260;52.008;4.752;2023-02-28T04:24:16;103258.53;;;5.34;65.03
46534;BME280;32260;52.008;4.752;2023-02-28T04:26:43;103256.28;;;5.44;65.17
46534;BME280;32260;52.008;4.752;2023-02-28T04:29:12;103260.16;;;5.31;65.12
46534;BME280;32260;52.008;4.752;2023-02-28T04:31:39;103262.69;;;5.29;65.39
46534;BME280;32260;52.008;4.752;2023-02-28T04:34:05;103258.38;;;5.30;65.63
46534;BME280;32260;52.008;4.752;2023-02-28T04:36:31;103263.63;;;5.30;65.34
46534;BME280;32260;52.008;4.752;2023-02-28T04:38:57;103261.00;;;5.30;65.55
46534;BME280;32260;52.008;4.752;2023-02-28T04:41:24;103254.91;;;5.31;65.64
46534;BME280;32260;52.008;4.752;2023-02-28T04:43:52;103259.28;;;5.32;65.36
46534;BME280;32260;52.008;4.752;2023-02-28T04:46:18;103262.84;;;5.32;65.43
46534;BME280;32260;52.008;4.752;2023-02-28T04:48:45;103264.66;;;5.33;65.31
46534;BME280;32260;52.008;4.752;2023-02-28T04:51:13;103271.56;;;5.31;65.52
46534;BME280;32260;52.008;4.752;2023-02-28T04:53:42;103271.50;;;5.30;65.56
46534;BME280;32260;52.008;4.752;2023-02-28T04:56:12;103274.19;;;5.31;65.92
46534;BME280;32260;52.008;4.752;2023-02-28T04:58:38;103270.53;;;5.28;65.78
46534;BME280;32260;52.008;4.752;2023-02-28T05:01:14;103267.06;;;5.29;65.83
46534;BME280;32260;52.008;4.752;2023-02-28T05:03:42;103274.13;;;5.30;65.90
46534;BME280;32260;52.008;4.752;2023-02-28T05:06:10;103272.38;;;5.30;65.49
46534;BME280;32260;52.008;4.752;2023-02-28T05:08:36;103271.50;;;5.30;65.79
46534;BME280;32260;52.008;4.752;2023-02-28T05:11:03;103263.63;;;5.30;65.91
46534;BME280;32260;52.008;4.752;2023-02-28T05:13:29;103263.56;;;5.28;66.04
46534;BME280;32260;52.008;4.752;2023-02-28T05:15:56;103270.53;;;5.28;66.19
46534;BME280;32260;52.008;4.752;2023-02-28T05:18:22;103270.53;;;5.28;65.99
46534;BME280;32260;52.008;4.752;2023-02-28T05:20:48;103265.28;;;5.28;65.84
46534;BME280;32260;52.008;4.752;2023-02-28T05:23:15;103270.53;;;5.28;66.07
46534;BME280;32260;52.008;4.752;2023-02-28T05:25:42;103270.53;;;5.28;66.00
46534;BME280;32260;52.008;4.752;2023-02-28T05:28:08;103270.53;;;5.28;66.28
46534;BME280;32260;52.008;4.752;2023-02-28T05:30:34;103271.44;;;5.28;66.02
46534;BME280;32260;52.008;4.752;2023-02-28T05:33:00;103274.97;;;5.29;65.98
46534;BME280;32260;52.008;4.752;2023-02-28T05:35:27;103281.97;;;5.28;66.08
46534;BME280;32260;52.008;4.752;2023-02-28T05:37:53;103278.47;;;5.29;65.56
46534;BME280;32260;52.008;4.752;2023-02-28T05:40:19;103278.41;;;5.28;65.78
46534;BME280;32260;52.008;4.752;2023-02-28T05:42:46;103286.31;;;5.28;66.18
46534;BME280;32260;52.008;4.752;2023-02-28T05:45:13;103282.66;;;5.24;65.85
46534;BME280;32260;52.008;4.752;2023-02-28T05:47:39;103284.13;;;5.17;65.86
46534;BME280;32260;52.008;4.752;2023-02-28T05:50:05;103284.66;;;5.09;65.68
46534;BME280;32260;52.008;4.752;2023-02-28T05:52:32;103280.94;;;5.04;64.62
46534;BME280;32260;52.008;4.752;2023-02-28T05:54:58;103283.09;;;4.93;63.86
46534;BME280;32260;52.008;4.752;2023-02-28T05:57:24;103281.28;;;4.92;63.50
46534;BME280;32260;52.008;4.752;2023-02-28T05:59:50;103277.69;;;4.90;62.90
46534;BME280;32260;52.008;4.752;2023-02-28T06:02:17;103276.75;;;4.88;62.43
46534;BME280;32260;52.008;4.752;2023-02-28T06:04:44;103280.06;;;4.83;61.62
46534;BME280;32260;52.008;4.752;2023-02-28T06:07:10;103283.59;;;4.84;61.56
46534;BME280;32260;52.008;4.752;2023-02-28T06:09:37;103284.22;;;4.78;61.01
46534;BME280;32260;52.008;4.752;2023-02-28T06:12:05;103279.81;;;4.77;61.28
46534;BME280;32260;52.008;4.752;2023-02-28T06:14:33;103278.84;;;4.75;61.05
46534;BME280;32260;52.008;4.752;2023-02-28T06:17:01;103279.69;;;4.74;60.61
46534;BME280;32260;52.008;4.752;2023-02-28T06:19:27;103282.31;;;4.74;61.56
46534;BME280;32260;52.008;4.752;2023-02-28T06:21:55;103284.81;;;4.71;61.42
46534;BME280;32260;52.008;4.752;2023-02-28T06:24:28;103281.81;;;4.63;60.72
46534;BME280;32260;52.008;4.752;2023-02-28T06:26:57;103278.94;;;4.57;61.64
46534;BME280;32260;52.008;4.752;2023-02-28T06:29:31;103290.13;;;4.53;62.13
46534;BME280;32260;52.008;4.752;2023-02-28T06:31:57;103293.25;;;4.44;62.88
46534;BME280;32260;52.008;4.752;2023-02-28T06:34:23;103291.31;;;4.40;62.80
46534;BME280;32260;52.008;4.752;2023-02-28T06:36:51;103278.75;;;4.33;62.99
46534;BME280;32260;52.008;4.752;2023-02-28T06:39:18;103288.91;;;4.25;63.12
46534;BME280;32260;52.008;4.752;2023-02-28T06:41:44;103289.44;;;4.18;64.30
46534;BME280;32260;52.008;4.752;2023-02-28T06:44:15;103292.94;;;4.18;64.46
46534;BME280;32260;52.008;4.752;2023-02-28T06:46:42;103294.63;;;4.16;64.68
46534;BME280;32260;52.008;4.752;2023-02-28T06:49:09;103298.91;;;4.14;64.63
46534;BME280;32260;52.008;4.752;2023-02-28T06:51:37;103292.66;;;4.12;65.33
46534;BME280;32260;52.008;4.752;2023-02-28T06:54:04;103303.84;;;4.08;65.38
46534;BME280;32260;52.008;4.752;2023-02-28T06:56:30;103313.31;;;4.04;65.26
46534;BME280;32260;52.008;4.752;2023-02-28T06:58:56;103316.63;;;4.00;65.69
46534;BME280;32260;52.008;4.752;2023-02-28T07:01:23;103322.47;;;3.95;65.83
46534;BME280;32260;52.008;4.752;2023-02-28T07:03:50;103321.34;;;3.89;65.88
46534;BME280;32260;52.008;4.752;2023-02-28T07:06:19;103315.00;;;3.84;66.78
46534;BME280;32260;52.008;4.752;2023-02-28T07:08:45;103325.31;;;3.81;67.06
46534;BME280;32260;52.008;4.752;2023-02-28T07:11:11;103329.44;;;3.76;67.07
46534;BME280;32260;52.008;4.752;2023-02-28T07:13:37;103315.28;;;3.72;67.27
46534;BME280;32260;52.008;4.752;2023-02-28T07:16:06;103326.41;;;3.67;67.80
46534;BME280;32260;52.008;4.752;2023-02-28T07:18:33;103329.09;;;3.68;67.13
46534;BME280;32260;52.008;4.752;2023-02-28T07:21:02;103330.00;;;3.69;67.71
46534;BME280;32260;52.008;4.752;2023-02-28T07:23:29;103318.59;;;3.68;67.58
46534;BME280;32260;52.008;4.752;2023-02-28T07:25:55;103325.66;;;3.69;67.85
46534;BME280;32260;52.008;4.752;2023-02-28T07:28:21;103323.09;;;3.71;68.15
46534;BME280;32260;52.008;4.752;2023-02-28T07:30:47;103325.78;;;3.72;68.09
46534;BME280;32260;52.008;4.752;2023-02-28T07:33:14;103329.38;;;3.75;68.75
46534;BME280;32260;52.008;4.752;2023-02-28T07:35:40;103326.81;;;3.76;68.56
46534;BME280;32260;52.008;4.752;2023-02-28T07:38:07;103331.41;;;3.80;68.52
46534;BME280;32260;52.008;4.752;2023-02-28T07:40:34;103332.53;;;3.85;68.09
46534;BME280;32260;52.008;4.752;2023-02-28T07:43:01;103339.66;;;3.88;67.94
46534;BME280;32260;52.008;4.752;2023-02-28T07:45:28;103332.75;;;3.90;68.72
46534;BME280;32260;52.008;4.752;2023-02-28T07:47:56;103328.53;;;3.94;67.53
46534;BME280;32260;52.008;4.752;2023-02-28T07:50:22;103323.28;;;3.94;67.37
46534;BME280;32260;52.008;4.752;2023-02-28T07:52:48;103322.47;;;3.95;68.15
46534;BME280;32260;52.008;4.752;2023-02-28T07:55:14;103320.66;;;3.94;68.31
46534;BME280;32260;52.008;4.752;2023-02-28T07:57:42;103317.09;;;3.92;68.42
46534;BME280;32260;52.008;4.752;2023-02-28T08:00:10;103321.41;;;3.91;68.60
46534;BME280;32260;52.008;4.752;2023-02-28T08:02:36;103317.03;;;3.90;68.80
46534;BME280;32260;52.008;4.752;2023-02-28T08:05:03;103328.53;;;3.94;67.98
46534;BME280;32260;52.008;4.752;2023-02-28T08:07:29;103326.06;;;3.97;68.17
46534;BME280;32260;52.008;4.752;2023-02-28T08:09:55;103327.81;;;3.96;68.75
46534;BME280;32260;52.008;4.752;2023-02-28T08:12:21;103325.25;;;3.98;68.04
46534;BME280;32260;52.008;4.752;2023-02-28T08:14:47;103327.13;;;4.00;68.50
46534;BME280;32260;52.008;4.752;2023-02-28T08:17:13;103329.06;;;4.04;68.17
46534;BME280;32260;52.008;4.752;2023-02-28T08:19:39;103323.97;;;4.08;68.30
46534;BME280;32260;52.008;4.752;2023-02-28T08:22:05;103322.38;;;4.11;68.41
46534;BME280;32260;52.008;4.752;2023-02-28T08:24:31;103311.19;;;4.15;68.82
46534;BME280;32260;52.008;4.752;2023-02-28T08:26:59;103318.53;;;4.23;68.92
46534;BME280;32260;52.008;4.752;2023-02-28T08:29:25;103321.28;;;4.26;69.01
46534;BME280;32260;52.008;4.752;2023-02-28T08:31:51;103316.25;;;4.30;68.34
46534;BME280;32260;52.008;4.752;2023-02-28T08:34:17;103324.34;;;4.35;68.82
46534;BME280;32260;52.008;4.752;2023-02-28T08:36:44;103324.53;;;4.40;69.03
46534;BME280;32260;52.008;4.752;2023-02-28T08:39:11;103321.31;;;4.45;69.04
46534;BME280;32260;52.008;4.752;2023-02-28T08:41:37;103319.72;;;4.49;68.42
46534;BME280;32260;52.008;4.752;2023-02-28T08:44:04;103323.38;;;4.52;68.70
46534;BME280;32260;52.008;4.752;2023-02-28T08:46:30;103328.91;;;4.59;68.97
46534;BME280;32260;52.008;4.752;2023-02-28T08:48:56;103322.13;;;4.64;69.18
46534;BME280;32260;52.008;4.752;2023-02-28T08:51:26;103320.59;;;4.69;69.21
46534;BME280;32260;52.008;4.752;2023-02-28T08:53:56;103326.06;;;4.74;69.48
46534;BME280;32260;52.008;4.752;2023-02-28T08:56:23;103313.97;;;4.77;68.49
46534;BME280;32260;52.008;4.752;2023-02-28T08:58:50;103319.47;;;4.83;69.30
46534;BME280;32260;52.008;4.752;2023-02-28T09:01:19;103318.91;;;4.91;69.24
46534;BME280;32260;52.008;4.752;2023-02-28T09:03:46;103321.78;;;4.97;69.41
46534;BME280;32260;52.008;4.752;2023-02-28T09:06:14;103323.75;;;5.01;69.28
46534;BME280;32260;52.008;4.752;2023-02-28T09:08:41;103322.22;;;5.06;69.22
46534;BME280;32260;52.008;4.752;2023-02-28T09:11:07;103327.47;;;5.06;69.33
46534;BME280;32260;52.008;4.752;2023-02-28T09:13:33;103320.53;;;5.08;68.99
46534;BME280;32260;52.008;4.752;2023-02-28T09:16:01;103327.47;;;5.06;69.07
46534;BME280;32260;52.008;4.752;2023-02-28T09:18:27;103329.19;;;5.06;69.01
46534;BME280;32260;52.008;4.752;2023-02-28T09:20:53;103325.94;;;5.11;68.85
46534;BME280;32260;52.008;4.752;2023-02-28T09:23:20;103336.44;;;5.11;69.38
46534;BME280;32260;52.008;4.752;2023-02-28T09:25:48;103344.59;;;5.17;69.02
46534;BME280;32260;52.008;4.752;2023-02-28T09:28:14;103331.50;;;5.19;69.12
46534;BME280;32260;52.008;4.752;2023-02-28T09:30:44;103330.88;;;5.25;68.96
46534;BME280;32260;52.008;4.752;2023-02-28T09:33:11;103336.25;;;5.28;69.12
46534;BME280;32260;52.008;4.752;2023-02-28T09:35:37;103331.25;;;5.34;68.80
46534;BME280;32260;52.008;4.752;2023-02-28T09:38:04;103330.53;;;5.38;68.99
46534;BME280;32260;52.008;4.752;2023-02-28T09:40:31;103343.06;;;5.44;69.03
46534;BME280;32260;52.008;4.752;2023-02-28T09:42:58;103340.72;;;5.51;68.92
46534;BME280;32260;52.008;4.752;2023-02-28T09:45:35;103348.16;;;5.62;68.97
46534;BME280;32260;52.008;4.752;2023-02-28T09:48:12;103341.38;;;5.67;68.98
46534;BME280;32260;52.008;4.752;2023-02-28T09:50:45;103340.66;;;5.71;68.98
46534;BME280;32260;52.008;4.752;2023-02-28T09:53:25;103342.72;;;5.78;68.68
46534;BME280;32260;52.008;4.752;2023-02-28T09:55:58;103341.75;;;5.76;68.23
46534;BME280;32260;52.008;4.752;2023-02-28T09:58:37;103346.16;;;5.77;68.21
46534;BME280;32260;52.008;4.752;2023-02-28T10:01:27;103332.09;;;5.77;67.98
46534;BME280;32260;52.008;4.752;2023-02-28T10:04:17;103338.81;;;5.91;67.76
46534;BME280;32260;52.008;4.752;2023-02-28T10:06:49;103341.41;;;5.90;67.57
46534;BME280;32260;52.008;4.752;2023-02-28T10:11:54;103340.94;;;6.00;66.78
46534;BME280;32260;52.008;4.752;2023-02-28T10:14:25;103335.75;;;6.02;66.58
46534;BME280;32260;52.008;4.752;2023-02-28T10:19:48;103334.31;;;6.10;65.77
46534;BME280;32260;52.008;4.752;2023-02-28T10:22:22;103329.94;;;6.10;65.37
46534;BME280;32260;52.008;4.752;2023-02-28T10:24:53;103340.00;;;6.21;65.25
46534;BME280;32260;52.008;4.752;2023-02-28T10:30:41;103338.41;;;6.48;63.83
46534;BME280;32260;52.008;4.752;2023-02-28T10:33:21;103330.16;;;6.63;63.94
46534;BME280;32260;52.008;4.752;2023-02-28T10:35:48;103324.28;;;6.71;60.96
46534;BME280;32260;52.008;4.752;2023-02-28T10:38:18;103323.81;;;6.83;59.61
46534;BME280;32260;52.008;4.752;2023-02-28T10:40:44;103326.88;;;6.95;59.76
46534;BME280;32260;52.008;4.752;2023-02-28T10:48:49;103311.16;;;7.24;58.04
46534;BME280;32260;52.008;4.752;2023-02-28T10:51:18;103303.53;;;7.32;59.46
46534;BME280;32260;52.008;4.752;2023-02-28T10:56:24;103301.41;;;7.49;57.43
46534;BME280;32260;52.008;4.752;2023-02-28T11:07:23;103297.53;;;7.37;51.66
46534;BME280;32260;52.008;4.752;2023-02-28T11:09:55;103298.13;;;7.28;54.13
46534;BME280;32260;52.008;4.752;2023-02-28T11:20:34;103288.03;;;7.42;52.32
46534;BME280;32260;52.008;4.752;2023-02-28T11:23:03;103292.78;;;7.53;51.50
46534;BME280;32260;52.008;4.752;2023-02-28T11:25:33;103286.19;;;7.67;53.80
46534;BME280;32260;52.008;4.752;2023-02-28T11:28:02;103293.53;;;7.77;52.26
46534;BME280;32260;52.008;4.752;2023-02-28T11:30:38;103278.97;;;7.90;51.95
46534;BME280;32260;52.008;4.752;2023-02-28T11:36:07;103269.84;;;8.09;49.08
46534;BME280;32260;52.008;4.752;2023-02-28T11:38:36;103270.03;;;8.16;47.94
46534;BME280;32260;52.008;4.752;2023-02-28T11:41:12;103270.44;;;8.30;48.38
46534;BME280;32260;52.008;4.752;2023-02-28T11:44:05;103263.63;;;8.38;46.41
46534;BME280;32260;52.008;4.752;2023-02-28T11:49:32;103255.91;;;8.46;43.54
46534;BME280;32260;52.008;4.752;2023-02-28T11:55:11;103253.09;;;8.70;44.56
46534;BME280;32260;52.008;4.752;2023-02-28T11:58:04;103248.06;;;8.81;45.21
46534;BME280;32260;52.008;4.752;2023-02-28T12:00:55;103249.19;;;8.90;45.45
46534;BME280;32260;52.008;4.752;2023-02-28T12:03:31;103247.47;;;8.91;44.25
46534;BME280;32260;52.008;4.752;2023-02-28T12:06:32;103239.63;;;8.96;41.61
46534;BME280;32260;52.008;4.752;2023-02-28T12:09:08;103243.94;;;8.92;43.66
46534;BME280;32260;52.008;4.752;2023-02-28T12:17:39;103238.38;;;9.16;43.33
46534;BME280;32260;52.008;4.752;2023-02-28T12:20:27;103233.97;;;9.17;41.69
46534;BME280;32260;52.008;4.752;2023-02-28T12:23:08;103237.69;;;9.23;42.24
46534;BME280;32260;52.008;4.752;2023-02-28T12:28:26;103228.91;;;9.25;42.91
46534;BME280;32260;52.008;4.752;2023-02-28T12:30:58;103237.88;;;9.31;41.53
46534;BME280;32260;52.008;4.752;2023-02-28T12:33:33;103234.28;;;9.29;40.34
46534;BME280;32260;52.008;4.752;2023-02-28T12:36:05;103236.91;;;9.29;40.72
46534;BME280;32260;52.008;4.752;2023-02-28T12:38:40;103222.03;;;9.34;41.30
46534;BME280;32260;52.008;4.752;2023-02-28T12:42:01;103229.44;;;9.49;41.63
46534;BME280;32260;52.008;4.752;2023-02-28T12:47:13;103223.31;;;9.52;40.03
46534;BME280;32260;52.008;4.752;2023-02-28T12:49:49;103221.78;;;9.62;41.39
46534;BME280;32260;52.008;4.752;2023-02-28T12:52:23;103208.66;;;9.66;40.16
46534;BME280;32260;52.008;4.752;2023-02-28T12:54:56;103212.28;;;9.71;39.87
46534;BME280;32260;52.008;4.752;2023-02-28T13:00:16;103206.28;;;9.79;40.42
46534;BME280;32260;52.008;4.752;2023-02-28T13:11:33;103183.84;;;10.04;39.43
46534;BME280;32260;52.008;4.752;2023-02-28T13:14:06;103185.66;;;10.07;38.40
46534;BME280;32260;52.008;4.752;2023-02-28T13:22:41;103176.31;;;10.26;39.18
46534;BME280;32260;52.008;4.752;2023-02-28T13:27:57;103172.78;;;10.27;38.28
46534;BME280;32260;52.008;4.752;2023-02-28T13:38:59;103164.38;;;10.48;38.65
46534;BME280;32260;52.008;4.752;2023-02-28T13:44:09;103161.06;;;10.61;37.52
46534;BME280;32260;52.008;4.752;2023-02-28T13:47:16;103161.09;;;10.63;37.52
46534;BME280;32260;52.008;4.752;2023-02-28T13:56:21;103148.88;;;10.73;36.58
46534;BME280;32260;52.008;4.752;2023-02-28T13:58:35;103156.97;;;10.80;36.65
46534;BME280;32260;52.008;4.752;2023-02-28T14:11:38;103129.63;;;10.83;36.83
46534;BME280;32260;52.008;4.752;2023-02-28T14:14:06;103128.72;;;10.84;36.42
46534;BME280;32260;52.008;4.752;2023-02-28T14:19:20;103120.00;;;10.90;36.04
46534;BME280;32260;52.008;4.752;2023-02-28T14:28:04;103122.91;;;11.07;36.46
46534;BME280;32260;52.008;4.752;2023-02-28T14:36:25;103117.50;;;11.00;37.59
46534;BME280;32260;52.008;4.752;2023-02-28T14:38:54;103119.41;;;11.11;35.85
46534;BME280;32260;52.008;4.752;2023-02-28T14:41:33;103121.19;;;11.12;35.90
46534;BME280;32260;52.008;4.752;2023-02-28T14:44:18;103123.88;;;11.13;35.78
46534;BME280;32260;52.008;4.752;2023-02-28T14:46:45;103115.91;;;11.12;35.90
46534;BME280;32260;52.008;4.752;2023-02-28T14:49:20;103119.50;;;11.17;36.18
46534;BME280;32260;52.008;4.752;2023-02-28T14:51:51;103114.97;;;11.11;35.78
46534;BME280;32260;52.008;4.752;2023-02-28T14:54:27;103115.91;;;11.12;35.58
46534;BME280;32260;52.008;4.752;2023-02-28T14:56:54;103116.75;;;11.11;36.32
46534;BME280;32260;52.008;4.752;2023-02-28T15:05:00;103112.22;;;11.04;35.80
46534;BME280;32260;52.008;4.752;2023-02-28T15:07:27;103111.25;;;10.95;34.58
46534;BME280;32260;52.008;4.752;2023-02-28T15:10:17;103111.38;;;11.05;34.82
46534;BME280;32260;52.008;4.752;2023-02-28T15:13:05;103119.31;;;11.05;36.45
46534;BME280;32260;52.008;4.752;2023-02-28T15:18:36;103119.28;;;11.02;34.81
46534;BME280;32260;52.008;4.752;2023-02-28T15:21:08;103117.50;;;11.00;35.97
46534;BME280;32260;52.008;4.752;2023-02-28T15:23:38;103116.56;;;10.97;35.36
46534;BME280;32260;52.008;4.752;2023-02-28T15:26:06;103118.34;;;10.98;35.95
46534;BME280;32260;52.008;4.752;2023-02-28T15:28:33;103122.75;;;10.97;34.56
46534;BME280;32260;52.008;4.752;2023-02-28T15:31:02;103121.88;;;10.97;35.19
46534;BME280;32260;52.008;4.752;2023-02-28T15:33:31;103124.53;;;10.97;35.46
46534;BME280;32260;52.008;4.752;2023-02-28T15:36:10;103120.91;;;10.92;36.49
46534;BME280;32260;52.008;4.752;2023-02-28T15:38:37;103125.25;;;10.87;34.50
46534;BME280;32260;52.008;4.752;2023-02-28T15:41:03;103119.09;;;10.89;35.00
46534;BME280;32260;52.008;4.752;2023-02-28T15:43:36;103117.34;;;10.90;35.70
46534;BME280;32260;52.008;4.752;2023-02-28T15:46:10;103120.09;;;10.96;35.22
46534;BME280;32260;52.008;4.752;2023-02-28T15:48:44;103113.94;;;10.98;36.40
46534;BME280;32260;52.008;4.752;2023-02-28T15:56:28;103120.00;;;10.93;39.58
46534;BME280;32260;52.008;4.752;2023-02-28T15:58:57;103112.09;;;10.94;39.71